Terminal Aerodrome Forecast
Issued by NWS

Home | Current Version | Previous Version | Text Only | Print | Product List | Glossary On
Versions: 1 2 3 4 5 6 7 8 9 10 11 12 13 14 15 16
596
FTUS44 KLZK 251303 AAA
TAFBPK
TAF AMD
KBPK 251303Z 2513/2612 14006KT P6SM FEW050
     FM251800 15009KT P6SM SCT050 SCT250
     FM260000 VRB05KT P6SM BKN120
      TEMPO 2610/2612 4SM BR=

USA.gov is the U.S. government's official web portal to all federal, state and local government web resources and services.